Colon, Argentina
Current Conditions -  °F | °C
As of 10:03 AM on Monday 24 Nov 2014 (Local Time) from SAAR Reporting Station
Thunderstorm Thunderstorm  
Wind Chill: 26°   Ceiling: Unl
Heat Index: 27°   Visibility: 6mi
Dew Point: 18°   Wind: 6mph
Humidity: 61%   Direction: 180°S
Pressure: 29.74"   Gusts: NA
Location:  33.88°S, 61.12°W
Report Text: SAAR 241303Z 18005KT 9999 TS SCT025 FEW045CB SCT045 26/18 Q1007
Loading
Personal Weather Stations






























Interactive Weather Map New forecast layout! Learn more

10-Day Weather Forecast

Advertisements
Track Severe Weather on mobile